Time;durP1;ratioP1;P1;durP2;ratioP2;P2;SDS_P1;SDS_P2;PMS_P1;PMS_P2;Temp;Humidity;BMP_temperature;BMP_pressure;BME280_temperature;BME280_humidity;BME280_pressure;Samples;Min_cycle;Max_cycle;Signal;HPM_P1;HPM_P2
2021/01/30 00:02:17;;;;;;;2.50;0.55;;;;;;;;;;4995531;28;20050;-75
2021/01/30 00:04:43;;;;;;;2.20;0.88;;;;;;;;;;5016711;28;20137;-75
2021/01/30 00:07:10;;;;;;;2.17;0.77;;;;;;;;;;4995050;28;20046;-75
2021/01/30 00:09:36;;;;;;;3.08;1.10;;;;;;;;;;4995596;28;20128;-75
2021/01/30 00:12:03;;;;;;;3.50;0.90;;;;;;;;;;4995399;28;20479;-76
2021/01/30 00:14:34;;;;;;;3.50;0.70;;;;;;;;;;5012786;28;20046;-75
2021/01/30 00:17:01;;;;;;;6.72;1.25;;;;;;;;;;4995021;28;20050;-75
2021/01/30 00:19:28;;;;;;;1.65;0.60;;;;;;;;;;4995553;28;20152;-75
2021/01/30 00:21:56;;;;;;;2.97;0.80;;;;;;;;;;4995430;28;20058;-76
2021/01/30 00:24:24;;;;;;;1.58;0.60;;;;;;;;;;4979182;28;20456;-76
2021/01/30 00:26:56;;;;;;;3.55;0.98;;;;;;;;;;4978521;28;20049;-76
2021/01/30 00:29:25;;;;;;;3.40;0.77;;;;;;;;;;4979826;28;20046;-76
2021/01/30 00:31:51;;;;;;;2.42;0.73;;;;;;;;;;5011275;28;20115;-75
2021/01/30 00:34:19;;;;;;;2.72;0.75;;;;;;;;;;5011253;28;20049;-76
2021/01/30 00:36:45;;;;;;;3.72;1.25;;;;;;;;;;4994510;28;20053;-75
2021/01/30 00:39:11;;;;;;;0.77;0.60;;;;;;;;;;5011588;28;20057;-76
2021/01/30 00:41:37;;;;;;;3.38;0.80;;;;;;;;;;4978758;28;20071;-76
2021/01/30 00:44:04;;;;;;;1.02;0.70;;;;;;;;;;5011158;28;20061;-75
2021/01/30 00:46:30;;;;;;;1.17;0.63;;;;;;;;;;4978258;28;20046;-76
2021/01/30 00:48:56;;;;;;;1.08;0.70;;;;;;;;;;4978857;28;20484;-76
2021/01/30 00:51:22;;;;;;;2.33;0.73;;;;;;;;;;4995005;28;20456;-75
2021/01/30 00:53:49;;;;;;;1.65;0.63;;;;;;;;;;4994783;28;20053;-76
2021/01/30 00:56:15;;;;;;;2.35;0.82;;;;;;;;;;4978013;28;20099;-76
2021/01/30 00:58:42;;;;;;;3.90;0.80;;;;;;;;;;5011095;28;20492;-76
2021/01/30 01:01:08;;;;;;;2.90;0.80;;;;;;;;;;4994850;28;20116;-75
2021/01/30 01:03:35;;;;;;;1.58;0.60;;;;;;;;;;4994913;28;20054;-75
2021/01/30 01:06:02;;;;;;;1.95;0.60;;;;;;;;;;5010213;28;20052;-75
2021/01/30 01:08:28;;;;;;;3.55;0.60;;;;;;;;;;4994225;28;20054;-76
2021/01/30 01:10:55;;;;;;;1.80;0.50;;;;;;;;;;4994567;28;20057;-75
2021/01/30 01:13:23;;;;;;;2.20;0.50;;;;;;;;;;4994785;28;20049;-75
2021/01/30 01:15:49;;;;;;;1.98;0.60;;;;;;;;;;5009977;28;20073;-75
2021/01/30 01:18:15;;;;;;;1.35;0.52;;;;;;;;;;5010990;28;20077;-75
2021/01/30 01:20:41;;;;;;;1.25;0.40;;;;;;;;;;4994375;28;20104;-75
2021/01/30 01:23:07;;;;;;;2.53;0.50;;;;;;;;;;4994453;28;20054;-75
2021/01/30 01:25:33;;;;;;;1.33;0.88;;;;;;;;;;4993706;28;20487;-75
2021/01/30 01:28:00;;;;;;;3.03;1.33;;;;;;;;;;4994329;28;20050;-75
2021/01/30 01:30:26;;;;;;;2.40;0.50;;;;;;;;;;5010803;28;20532;-75
2021/01/30 01:32:54;;;;;;;1.48;0.52;;;;;;;;;;4994413;28;20057;-76
2021/01/30 01:35:28;;;;;;;3.30;0.75;;;;;;;;;;5009904;28;20060;-75
2021/01/30 01:37:55;;;;;;;1.67;0.80;;;;;;;;;;5010806;28;20088;-75
2021/01/30 01:40:30;;;;;;;2.08;0.50;;;;;;;;;;4994220;28;20053;-75
2021/01/30 01:43:04;;;;;;;4.43;0.68;;;;;;;;;;4995174;28;20501;-75
2021/01/30 01:45:31;;;;;;;2.25;0.50;;;;;;;;;;4993830;28;20089;-75
2021/01/30 01:47:57;;;;;;;1.60;0.52;;;;;;;;;;4994228;28;20100;-75
2021/01/30 01:50:29;;;;;;;1.65;0.57;;;;;;;;;;5010460;28;20104;-75
2021/01/30 01:52:59;;;;;;;2.15;0.50;;;;;;;;;;5011917;28;20124;-76
2021/01/30 01:55:26;;;;;;;2.85;0.80;;;;;;;;;;4993655;28;20584;-75
2021/01/30 01:57:53;;;;;;;1.58;0.40;;;;;;;;;;4994151;28;20115;-75
2021/01/30 02:00:21;;;;;;;1.25;0.52;;;;;;;;;;4994331;28;20104;-75
2021/01/30 02:02:48;;;;;;;5.53;0.68;;;;;;;;;;4991662;28;20046;-75
2021/01/30 02:05:31;;;;;;;0.65;0.38;;;;;;;;;;4974550;28;20112;-75
2021/01/30 02:08:17;;;;;;;2.90;0.60;;;;;;;;;;4995567;28;20559;-75
2021/01/30 02:10:45;;;;;;;0.82;0.40;;;;;;;;;;5010207;28;20081;-75
2021/01/30 02:13:17;;;;;;;2.97;0.60;;;;;;;;;;4978289;28;20060;-75
2021/01/30 02:15:44;;;;;;;2.10;0.52;;;;;;;;;;4993487;28;20053;-75
2021/01/30 02:18:10;;;;;;;1.52;0.50;;;;;;;;;;4995180;28;20054;-75
2021/01/30 02:20:55;;;;;;;0.40;0.30;;;;;;;;;;5015131;28;20494;-75
2021/01/30 02:23:42;;;;;;;2.75;0.47;;;;;;;;;;5015221;28;20480;-76
2021/01/30 02:26:45;;;;;;;1.08;0.43;;;;;;;;;;5014385;28;20076;-75
2021/01/30 02:29:20;;;;;;;1.07;0.40;;;;;;;;;;5015024;28;20508;-75
2021/01/30 02:31:58;;;;;;;1.13;0.40;;;;;;;;;;5015031;28;20073;-75
2021/01/30 02:34:54;;;;;;;0.50;0.30;;;;;;;;;;5020881;28;20066;-75
2021/01/30 02:37:22;;;;;;;0.50;0.30;;;;;;;;;;5014286;28;20448;-75
2021/01/30 02:39:54;;;;;;;2.15;0.40;;;;;;;;;;4997483;28;20066;-75
2021/01/30 02:42:25;;;;;;;1.38;0.40;;;;;;;;;;4997872;28;20076;-74
2021/01/30 02:45:12;;;;;;;1.23;0.20;;;;;;;;;;4981450;28;20125;-75
2021/01/30 02:47:41;;;;;;;0.68;0.40;;;;;;;;;;4998319;28;20046;-75
2021/01/30 02:50:20;;;;;;;0.32;0.20;;;;;;;;;;4997342;28;20413;-75
2021/01/30 02:52:47;;;;;;;2.55;0.65;;;;;;;;;;4997335;28;20050;-75
2021/01/30 02:55:14;;;;;;;0.38;0.15;;;;;;;;;;4996902;28;20052;-75
2021/01/30 02:57:40;;;;;;;0.70;0.63;;;;;;;;;;5013300;28;20105;-75
2021/01/30 03:00:09;;;;;;;1.73;0.43;;;;;;;;;;5013189;28;20054;-75
2021/01/30 03:02:35;;;;;;;1.10;0.22;;;;;;;;;;4997004;28;20057;-75
2021/01/30 03:05:04;;;;;;;0.55;0.30;;;;;;;;;;5013220;28;20411;-75
2021/01/30 03:07:36;;;;;;;3.72;0.43;;;;;;;;;;4996690;28;20100;-75
2021/01/30 03:10:25;;;;;;;1.65;0.32;;;;;;;;;;5014060;28;20052;-75
2021/01/30 03:13:31;;;;;;;1.23;0.20;;;;;;;;;;4998840;28;20104;-75
2021/01/30 03:16:03;;;;;;;1.13;0.10;;;;;;;;;;4973028;28;20051;-75
2021/01/30 03:18:34;;;;;;;0.75;0.30;;;;;;;;;;4977955;28;20062;-75
2021/01/30 03:21:06;;;;;;;0.82;0.60;;;;;;;;;;4977373;28;20078;-75
2021/01/30 03:23:32;;;;;;;2.60;0.40;;;;;;;;;;4977718;28;20090;-75
2021/01/30 03:26:01;;;;;;;1.45;0.47;;;;;;;;;;4976418;28;20073;-75
2021/01/30 03:28:27;;;;;;;1.15;0.22;;;;;;;;;;4977197;28;20059;-75
2021/01/30 03:30:53;;;;;;;2.72;0.10;;;;;;;;;;4987383;28;20500;-75
2021/01/30 03:33:19;;;;;;;0.57;0.20;;;;;;;;;;5012973;28;20478;-75
2021/01/30 03:35:45;;;;;;;1.00;0.10;;;;;;;;;;5011769;28;20096;-75
2021/01/30 03:38:11;;;;;;;0.93;0.25;;;;;;;;;;5012540;28;20493;-75
2021/01/30 03:40:39;;;;;;;0.22;0.20;;;;;;;;;;5012320;28;20078;-75
2021/01/30 03:43:06;;;;;;;0.60;0.30;;;;;;;;;;5012513;28;20133;-75
2021/01/30 03:45:32;;;;;;;0.50;0.20;;;;;;;;;;4995529;28;20090;-75
2021/01/30 03:47:59;;;;;;;0.52;0.17;;;;;;;;;;5012435;28;20117;-74
2021/01/30 03:50:26;;;;;;;0.63;0.20;;;;;;;;;;4996017;28;20555;-75
2021/01/30 03:52:52;;;;;;;0.30;0.20;;;;;;;;;;5012165;28;20109;-75
2021/01/30 03:55:20;;;;;;;0.95;0.25;;;;;;;;;;4995370;28;20085;-75
2021/01/30 03:57:46;;;;;;;1.15;0.22;;;;;;;;;;4995989;28;20123;-75
2021/01/30 04:00:17;;;;;;;1.05;0.17;;;;;;;;;;5013217;28;20073;-75
2021/01/30 04:02:43;;;;;;;0.22;0.20;;;;;;;;;;4996088;28;20054;-75
2021/01/30 04:05:17;;;;;;;0.22;0.15;;;;;;;;;;5011098;28;20057;-75
2021/01/30 04:07:43;;;;;;;0.77;0.40;;;;;;;;;;5011802;28;20112;-75
2021/01/30 04:10:12;;;;;;;0.70;0.28;;;;;;;;;;4995935;28;20052;-75
2021/01/30 04:12:40;;;;;;;0.90;0.20;;;;;;;;;;5011979;28;20181;-75
2021/01/30 04:15:07;;;;;;;1.77;0.25;;;;;;;;;;4995386;28;20471;-75
2021/01/30 04:17:33;;;;;;;1.27;0.40;;;;;;;;;;4995367;28;20042;-75
2021/01/30 04:20:01;;;;;;;0.73;0.30;;;;;;;;;;5012926;28;20058;-75
2021/01/30 04:22:27;;;;;;;2.13;0.40;;;;;;;;;;5011695;28;20135;-75
2021/01/30 04:24:53;;;;;;;1.27;0.30;;;;;;;;;;5011420;28;20515;-75
2021/01/30 04:27:20;;;;;;;0.40;0.10;;;;;;;;;;5011169;28;20394;-75
2021/01/30 04:29:46;;;;;;;0.68;0.40;;;;;;;;;;5011532;28;20512;-75
2021/01/30 04:32:12;;;;;;;0.40;0.10;;;;;;;;;;5011694;28;20049;-75
2021/01/30 04:34:40;;;;;;;0.75;0.25;;;;;;;;;;4995177;28;20065;-75
2021/01/30 04:37:06;;;;;;;0.70;0.30;;;;;;;;;;4994635;28;20074;-75
2021/01/30 04:39:32;;;;;;;0.35;0.28;;;;;;;;;;5011580;28;20053;-75
2021/01/30 04:42:13;;;;;;;1.05;0.22;;;;;;;;;;4994182;28;20049;-75
2021/01/30 04:44:46;;;;;;;2.88;0.28;;;;;;;;;;4995907;28;20050;-75
2021/01/30 04:47:21;;;;;;;1.80;0.30;;;;;;;;;;5011661;28;20509;-75
2021/01/30 04:49:57;;;;;;;1.30;0.30;;;;;;;;;;5012319;28;20089;-75
2021/01/30 04:52:40;;;;;;;1.10;0.35;;;;;;;;;;4995923;28;20096;-75
2021/01/30 04:55:25;;;;;;;2.70;0.30;;;;;;;;;;5011048;28;20521;-75
2021/01/30 04:57:51;;;;;;;0.55;0.20;;;;;;;;;;5012085;28;20432;-75
2021/01/30 05:00:39;;;;;;;2.63;0.35;;;;;;;;;;5012441;28;20046;-75
2021/01/30 05:03:17;;;;;;;1.13;0.40;;;;;;;;;;4995218;28;20053;-75
2021/01/30 05:05:44;;;;;;;0.75;0.30;;;;;;;;;;5010664;28;20085;-75
2021/01/30 05:08:34;;;;;;;3.45;0.40;;;;;;;;;;4998331;28;20081;-75
2021/01/30 05:11:03;;;;;;;1.88;0.82;;;;;;;;;;5010757;28;20050;-75
2021/01/30 05:13:43;;;;;;;1.63;0.98;;;;;;;;;;4994694;28;20100;-75
2021/01/30 05:16:17;;;;;;;1.35;0.38;;;;;;;;;;5010206;28;20050;-75
2021/01/30 05:18:48;;;;;;;4.25;0.47;;;;;;;;;;4978706;28;20133;-75
2021/01/30 05:21:18;;;;;;;4.40;0.77;;;;;;;;;;5010740;28;20100;-75
2021/01/30 05:23:50;;;;;;;3.65;0.43;;;;;;;;;;5010475;28;20056;-75
2021/01/30 05:26:27;;;;;;;6.60;0.68;;;;;;;;;;4978652;28;20468;-75
2021/01/30 05:29:02;;;;;;;3.45;0.68;;;;;;;;;;5010610;28;20050;-75
2021/01/30 05:31:34;;;;;;;1.25;0.43;;;;;;;;;;5011804;28;20081;-75
2021/01/30 05:34:11;;;;;;;3.35;0.70;;;;;;;;;;5010395;28;20057;-75
2021/01/30 05:36:51;;;;;;;2.00;0.80;;;;;;;;;;5009813;28;20092;-75
2021/01/30 05:39:33;;;;;;;3.47;1.13;;;;;;;;;;4994405;28;20555;-75
2021/01/30 05:42:21;;;;;;;2.92;0.70;;;;;;;;;;5011386;28;20054;-75
2021/01/30 05:45:23;;;;;;;6.20;0.85;;;;;;;;;;5011515;28;20046;-75
2021/01/30 05:47:50;;;;;;;6.00;0.90;;;;;;;;;;4999422;28;20394;-75
2021/01/30 05:50:20;;;;;;;7.70;1.17;;;;;;;;;;4998355;28;20046;-75
2021/01/30 05:52:46;;;;;;;3.05;0.90;;;;;;;;;;5010980;28;20049;-75
2021/01/30 05:55:24;;;;;;;2.72;0.98;;;;;;;;;;4997781;28;20049;-75
2021/01/30 05:57:50;;;;;;;2.22;0.68;;;;;;;;;;5014195;28;20092;-75
2021/01/30 06:00:18;;;;;;;5.68;0.90;;;;;;;;;;4998223;28;20043;-75
2021/01/30 06:03:10;;;;;;;4.20;0.75;;;;;;;;;;5014405;28;20132;-75
2021/01/30 06:05:47;;;;;;;5.80;1.67;;;;;;;;;;5016467;28;20054;-75
2021/01/30 06:08:15;;;;;;;3.67;0.45;;;;;;;;;;5000434;28;20103;-75
2021/01/30 06:10:42;;;;;;;7.72;1.20;;;;;;;;;;4973705;28;20072;-76
2021/01/30 06:13:12;;;;;;;6.22;1.10;;;;;;;;;;5022603;28;20073;-76
2021/01/30 06:15:41;;;;;;;2.17;0.90;;;;;;;;;;5019939;28;20039;-76
2021/01/30 06:18:19;;;;;;;4.43;0.93;;;;;;;;;;5034748;28;20034;-76
2021/01/30 06:20:56;;;;;;;6.75;1.27;;;;;;;;;;5024456;28;20030;-75
2021/01/30 06:23:23;;;;;;;5.50;1.60;;;;;;;;;;5024391;28;20049;-76
2021/01/30 06:25:49;;;;;;;8.40;1.20;;;;;;;;;;5039584;28;20068;-76
2021/01/30 06:28:22;;;;;;;4.55;0.88;;;;;;;;;;5023430;28;20038;-76
2021/01/30 06:30:48;;;;;;;8.43;1.38;;;;;;;;;;5020450;28;20043;-76
2021/01/30 06:33:25;;;;;;;6.60;1.02;;;;;;;;;;5004499;28;20044;-76
2021/01/30 06:35:56;;;;;;;6.03;1.13;;;;;;;;;;5019548;28;20054;-76
2021/01/30 06:38:30;;;;;;;8.68;1.80;;;;;;;;;;5020592;28;20070;-76
2021/01/30 06:40:59;;;;;;;7.10;1.70;;;;;;;;;;5020496;28;20038;-76
2021/01/30 06:43:35;;;;;;;4.03;0.80;;;;;;;;;;5020518;28;20035;-76
2021/01/30 06:46:11;;;;;;;6.97;0.98;;;;;;;;;;5003665;28;20050;-76
2021/01/30 06:48:42;;;;;;;6.43;1.30;;;;;;;;;;5020404;28;20035;-76
2021/01/30 06:51:35;;;;;;;7.03;1.13;;;;;;;;;;5017382;28;20054;-75
2021/01/30 06:54:21;;;;;;;3.80;0.93;;;;;;;;;;5031392;28;20038;-73
2021/01/30 06:57:15;;;;;;;9.65;1.95;;;;;;;;;;5039184;28;20297;-74
2021/01/30 06:59:55;;;;;;;6.82;0.80;;;;;;;;;;5020291;28;20033;-75
2021/01/30 07:02:34;;;;;;;4.90;1.42;;;;;;;;;;5029915;28;20054;-76
2021/01/30 07:05:06;;;;;;;7.22;1.50;;;;;;;;;;5032936;28;20030;-75
2021/01/30 07:07:45;;;;;;;8.10;1.13;;;;;;;;;;5028634;28;20083;-72
2021/01/30 07:10:37;;;;;;;6.90;1.30;;;;;;;;;;5029626;28;20033;-74
2021/01/30 07:13:19;;;;;;;5.43;1.33;;;;;;;;;;5026763;28;20058;-73
2021/01/30 07:16:21;;;;;;;7.03;2.08;;;;;;;;;;5016672;28;20031;-73
2021/01/30 07:18:52;;;;;;;7.38;2.15;;;;;;;;;;5013651;28;20069;-77
2021/01/30 07:21:23;;;;;;;6.35;1.67;;;;;;;;;;5012082;28;20047;-74
2021/01/30 07:24:12;;;;;;;8.25;2.85;;;;;;;;;;4983926;28;20103;-74
2021/01/30 07:26:39;;;;;;;9.90;2.35;;;;;;;;;;4998049;28;20405;-74
2021/01/30 07:29:10;;;;;;;6.82;1.10;;;;;;;;;;4994204;28;20092;-74
2021/01/30 07:31:41;;;;;;;7.97;1.33;;;;;;;;;;4993519;28;20460;-74
2021/01/30 07:34:22;;;;;;;9.65;3.30;;;;;;;;;;4998311;28;20045;-74
2021/01/30 07:37:08;;;;;;;12.40;3.30;;;;;;;;;;4978925;28;20053;-74
2021/01/30 07:39:57;;;;;;;6.70;2.03;;;;;;;;;;5001813;28;20046;-74
2021/01/30 07:42:34;;;;;;;8.60;1.60;;;;;;;;;;4999204;28;20050;-74
2021/01/30 07:45:13;;;;;;;8.70;1.80;;;;;;;;;;4994411;28;20053;-74
2021/01/30 07:47:48;;;;;;;11.02;1.52;;;;;;;;;;5008379;28;20053;-74
2021/01/30 07:50:29;;;;;;;4.70;1.77;;;;;;;;;;4995416;28;20549;-74
2021/01/30 07:53:02;;;;;;;7.40;1.67;;;;;;;;;;5010840;28;20058;-75
2021/01/30 07:55:28;;;;;;;7.75;1.63;;;;;;;;;;5011550;28;20100;-75
2021/01/30 07:58:03;;;;;;;12.02;2.20;;;;;;;;;;4996016;28;20161;-74
2021/01/30 08:00:36;;;;;;;5.35;1.27;;;;;;;;;;5012409;28;20116;-75
2021/01/30 08:03:27;;;;;;;5.80;1.45;;;;;;;;;;5011934;28;20068;-75
2021/01/30 08:06:20;;;;;;;8.07;1.50;;;;;;;;;;5012417;28;20053;-75
2021/01/30 08:09:05;;;;;;;7.18;1.17;;;;;;;;;;5010939;28;20547;-74
2021/01/30 08:11:32;;;;;;;10.45;2.22;;;;;;;;;;5012121;28;20049;-75
2021/01/30 08:14:11;;;;;;;9.80;1.73;;;;;;;;;;4995864;28;20116;-75
2021/01/30 08:16:55;;;;;;;5.43;1.35;;;;;;;;;;5012474;28;20046;-74
2021/01/30 08:19:48;;;;;;;9.63;2.25;;;;;;;;;;4998107;28;20509;-74
2021/01/30 08:22:19;;;;;;;4.97;1.45;;;;;;;;;;5005382;28;20054;-74
2021/01/30 08:24:53;;;;;;;7.25;1.75;;;;;;;;;;4995775;28;20080;-73
2021/01/30 08:27:30;;;;;;;5.55;1.02;;;;;;;;;;4994749;28;20053;-74
2021/01/30 08:30:07;;;;;;;12.88;1.48;;;;;;;;;;4996776;28;20468;-74
2021/01/30 08:32:36;;;;;;;6.32;1.35;;;;;;;;;;4996459;28;20107;-74
2021/01/30 08:35:21;;;;;;;4.97;1.33;;;;;;;;;;4995467;28;20058;-74
2021/01/30 08:37:59;;;;;;;4.70;1.30;;;;;;;;;;5010823;28;20100;-73
2021/01/30 08:40:44;;;;;;;5.68;1.27;;;;;;;;;;5010267;28;20100;-74
2021/01/30 08:43:16;;;;;;;8.63;1.85;;;;;;;;;;5010601;28;20099;-74
2021/01/30 08:45:42;;;;;;;7.30;2.03;;;;;;;;;;4992665;28;20050;-74
2021/01/30 08:48:23;;;;;;;4.85;1.77;;;;;;;;;;4992894;28;20100;-73
2021/01/30 08:50:51;;;;;;;8.35;2.22;;;;;;;;;;4992898;28;20058;-74
2021/01/30 08:53:23;;;;;;;9.82;2.03;;;;;;;;;;4993072;28;20062;-74
2021/01/30 08:55:51;;;;;;;5.57;1.65;;;;;;;;;;5008267;28;20050;-74
2021/01/30 08:58:36;;;;;;;11.45;3.60;;;;;;;;;;5009266;28;20054;-74
2021/01/30 09:01:04;;;;;;;12.13;2.30;;;;;;;;;;5010151;28;20378;-74
2021/01/30 09:03:47;;;;;;;7.78;2.47;;;;;;;;;;5010120;28;20077;-74
2021/01/30 09:06:41;;;;;;;9.80;4.70;;;;;;;;;;4992697;28;20103;-75
2021/01/30 09:09:09;;;;;;;9.13;3.08;;;;;;;;;;5010166;28;20054;-74
2021/01/30 09:11:41;;;;;;;12.23;2.47;;;;;;;;;;4993004;28;20064;-74
2021/01/30 09:14:16;;;;;;;9.35;2.30;;;;;;;;;;5009913;28;20574;-74
2021/01/30 09:16:51;;;;;;;7.82;2.75;;;;;;;;;;5008903;28;20505;-74
2021/01/30 09:19:49;;;;;;;7.20;2.05;;;;;;;;;;5009085;28;20137;-74
2021/01/30 09:22:22;;;;;;;11.57;2.75;;;;;;;;;;5009245;28;20054;-74
2021/01/30 09:25:07;;;;;;;8.27;1.73;;;;;;;;;;5008943;28;20050;-76
2021/01/30 09:27:36;;;;;;;8.07;2.50;;;;;;;;;;5009194;28;20054;-76
2021/01/30 09:30:36;;;;;;;10.82;2.50;;;;;;;;;;4976156;28;20061;-76
2021/01/30 09:33:18;;;;;;;9.10;2.67;;;;;;;;;;4982179;28;20463;-72
2021/01/30 09:35:44;;;;;;;8.32;2.45;;;;;;;;;;4993072;28;20096;-72
2021/01/30 09:38:35;;;;;;;9.20;2.67;;;;;;;;;;4992363;28;20085;-72
2021/01/30 09:41:22;;;;;;;10.30;2.92;;;;;;;;;;5000278;28;20058;-72
2021/01/30 09:43:49;;;;;;;6.78;1.88;;;;;;;;;;5009143;28;20061;-71
2021/01/30 09:46:19;;;;;;;6.70;2.45;;;;;;;;;;4974747;28;20395;-71
2021/01/30 09:48:45;;;;;;;9.27;2.00;;;;;;;;;;4988829;28;20054;-73
2021/01/30 09:51:12;;;;;;;10.88;3.38;;;;;;;;;;4973681;28;20060;-71
2021/01/30 09:54:09;;;;;;;7.43;2.42;;;;;;;;;;4973988;28;20105;-71
2021/01/30 09:56:36;;;;;;;6.32;3.00;;;;;;;;;;4986052;28;20140;-70
2021/01/30 09:59:03;;;;;;;12.68;4.00;;;;;;;;;;5004320;28;20466;-72
2021/01/30 10:01:37;;;;;;;10.50;3.67;;;;;;;;;;4997911;28;20065;-71
2021/01/30 10:04:21;;;;;;;11.38;3.20;;;;;;;;;;5010035;28;20053;-72
2021/01/30 10:06:48;;;;;;;9.30;3.03;;;;;;;;;;5009159;28;20101;-72
2021/01/30 10:09:20;;;;;;;7.47;2.38;;;;;;;;;;4993783;28;20058;-72
2021/01/30 10:11:54;;;;;;;9.73;2.10;;;;;;;;;;4994494;28;20046;-72
2021/01/30 10:14:21;;;;;;;10.57;2.65;;;;;;;;;;4993758;28;20104;-72
2021/01/30 10:16:59;;;;;;;7.20;1.60;;;;;;;;;;4992830;28;20061;-73
2021/01/30 10:19:27;;;;;;;8.02;1.85;;;;;;;;;;4994009;28;20054;-73
2021/01/30 10:21:54;;;;;;;6.80;1.50;;;;;;;;;;4993283;28;20050;-72
2021/01/30 10:24:22;;;;;;;11.00;1.90;;;;;;;;;;4993404;28;20497;-72
2021/01/30 10:26:50;;;;;;;8.80;2.90;;;;;;;;;;4992535;28;20050;-73
2021/01/30 10:29:18;;;;;;;9.95;1.65;;;;;;;;;;4996264;28;20414;-72
2021/01/30 10:32:00;;;;;;;5.65;1.52;;;;;;;;;;4998934;28;20045;-72
2021/01/30 10:34:31;;;;;;;6.45;1.02;;;;;;;;;;4984546;28;20069;-74
2021/01/30 10:37:04;;;;;;;7.93;2.40;;;;;;;;;;4986486;28;20456;-72
2021/01/30 10:39:32;;;;;;;6.32;1.77;;;;;;;;;;4990449;28;20494;-71
2021/01/30 10:42:02;;;;;;;7.03;1.30;;;;;;;;;;4995877;28;20643;-72
2021/01/30 10:44:28;;;;;;;9.68;1.77;;;;;;;;;;4994570;28;20042;-71
2021/01/30 10:46:59;;;;;;;6.18;1.08;;;;;;;;;;4993942;28;20073;-71
2021/01/30 10:49:31;;;;;;;4.72;1.35;;;;;;;;;;4994258;28;20046;-71
2021/01/30 10:52:01;;;;;;;6.55;1.17;;;;;;;;;;4993563;28;20081;-72
2021/01/30 10:54:31;;;;;;;4.20;1.10;;;;;;;;;;4992498;28;20049;-71
2021/01/30 10:57:07;;;;;;;4.50;1.15;;;;;;;;;;4987139;28;20584;-71
2021/01/30 10:59:45;;;;;;;8.55;2.08;;;;;;;;;;4993472;28;20054;-71
2021/01/30 11:02:35;;;;;;;4.45;1.30;;;;;;;;;;4996416;28;20058;-71
2021/01/30 11:05:25;;;;;;;5.20;1.30;;;;;;;;;;5018002;28;20054;-72
2021/01/30 11:08:03;;;;;;;3.92;1.23;;;;;;;;;;4992621;28;20050;-72
2021/01/30 11:10:40;;;;;;;4.45;1.05;;;;;;;;;;4992588;28;20062;-72
2021/01/30 11:13:24;;;;;;;1.63;0.60;;;;;;;;;;4999874;28;20049;-71
2021/01/30 11:16:01;;;;;;;4.07;1.40;;;;;;;;;;4994623;28;20054;-72
2021/01/30 11:18:27;;;;;;;4.38;1.40;;;;;;;;;;4996775;28;20072;-71
2021/01/30 11:20:55;;;;;;;5.03;1.20;;;;;;;;;;5013286;28;20050;-72
2021/01/30 11:23:45;;;;;;;2.47;0.88;;;;;;;;;;4996104;28;20057;-71
2021/01/30 11:26:19;;;;;;;1.98;0.73;;;;;;;;;;4995478;28;20049;-72
2021/01/30 11:28:45;;;;;;;4.47;1.10;;;;;;;;;;5013340;28;20376;-71
2021/01/30 11:31:12;;;;;;;5.18;1.23;;;;;;;;;;4999381;28;20123;-69
2021/01/30 11:33:38;;;;;;;6.80;1.17;;;;;;;;;;5005642;28;20497;-71
2021/01/30 11:36:06;;;;;;;5.30;1.15;;;;;;;;;;4990689;28;20074;-72
2021/01/30 11:38:32;;;;;;;2.28;0.90;;;;;;;;;;4991774;28;20078;-71
2021/01/30 11:40:59;;;;;;;4.30;1.17;;;;;;;;;;5005545;28;20050;-71
2021/01/30 11:43:25;;;;;;;3.92;1.20;;;;;;;;;;5002698;28;20054;-70
2021/01/30 11:45:52;;;;;;;5.30;1.20;;;;;;;;;;4998888;28;20112;-72
2021/01/30 11:48:20;;;;;;;5.78;1.35;;;;;;;;;;5008634;28;20043;-68
2021/01/30 11:50:46;;;;;;;2.97;1.17;;;;;;;;;;5004442;28;20112;-71
2021/01/30 11:53:14;;;;;;;5.85;0.90;;;;;;;;;;5005371;28;20494;-69
2021/01/30 11:55:41;;;;;;;6.90;1.85;;;;;;;;;;5004501;28;20496;-71
2021/01/30 11:58:08;;;;;;;15.88;6.90;;;;;;;;;;4980644;28;20551;-69
2021/01/30 12:00:34;;;;;;;26.08;10.93;;;;;;;;;;5000218;28;20176;-71
2021/01/30 12:03:02;;;;;;;21.20;11.73;;;;;;;;;;5002393;28;20049;-71
2021/01/30 12:05:29;;;;;;;14.23;7.65;;;;;;;;;;5005615;28;20509;-71
2021/01/30 12:07:55;;;;;;;8.32;2.90;;;;;;;;;;5006000;28;20051;-70
2021/01/30 12:10:21;;;;;;;3.25;1.25;;;;;;;;;;5004299;28;20144;-70
2021/01/30 12:12:48;;;;;;;4.45;2.83;;;;;;;;;;4989398;28;20053;-71
2021/01/30 12:15:14;;;;;;;4.78;1.40;;;;;;;;;;5001999;28;20057;-71
2021/01/30 12:17:42;;;;;;;5.18;1.77;;;;;;;;;;5006596;28;20050;-71
2021/01/30 12:20:20;;;;;;;4.72;1.20;;;;;;;;;;5001080;28;20116;-72
2021/01/30 12:22:47;;;;;;;2.63;1.30;;;;;;;;;;4991468;28;20556;-72
2021/01/30 12:25:13;;;;;;;6.68;3.22;;;;;;;;;;5008450;28;20101;-71
2021/01/30 12:27:48;;;;;;;6.53;2.35;;;;;;;;;;5006055;28;20050;-71
2021/01/30 12:30:16;;;;;;;4.45;1.52;;;;;;;;;;4989752;28;20097;-72
2021/01/30 12:32:42;;;;;;;4.68;1.25;;;;;;;;;;5002354;28;20120;-72
2021/01/30 12:35:09;;;;;;;4.80;1.58;;;;;;;;;;5000746;28;20053;-71
2021/01/30 12:37:35;;;;;;;3.88;0.90;;;;;;;;;;5010683;28;20556;-72
2021/01/30 12:40:03;;;;;;;4.93;1.48;;;;;;;;;;4994667;28;20526;-73
2021/01/30 12:42:29;;;;;;;5.72;1.30;;;;;;;;;;4981430;28;20521;-72
2021/01/30 12:44:55;;;;;;;6.63;1.35;;;;;;;;;;4992224;28;20055;-72
2021/01/30 12:47:26;;;;;;;3.60;1.02;;;;;;;;;;4991923;28;20105;-72
2021/01/30 12:50:06;;;;;;;9.00;2.95;;;;;;;;;;4977669;28;20050;-73
2021/01/30 12:52:32;;;;;;;6.65;1.70;;;;;;;;;;4975402;28;20093;-71
2021/01/30 12:54:58;;;;;;;3.97;1.17;;;;;;;;;;4994432;28;20054;-71
2021/01/30 12:57:24;;;;;;;6.38;1.52;;;;;;;;;;5011477;28;20046;-71
2021/01/30 12:59:51;;;;;;;5.78;1.83;;;;;;;;;;5010855;28;20065;-71
2021/01/30 13:02:17;;;;;;;5.45;1.65;;;;;;;;;;4994170;28;20556;-72
2021/01/30 13:04:43;;;;;;;5.18;1.83;;;;;;;;;;5010238;28;20042;-71
2021/01/30 13:07:09;;;;;;;4.13;1.00;;;;;;;;;;5011414;28;20540;-72
2021/01/30 13:09:35;;;;;;;3.95;1.35;;;;;;;;;;5011736;28;20072;-72
2021/01/30 13:12:02;;;;;;;5.53;1.30;;;;;;;;;;4993945;28;20405;-72
2021/01/30 13:14:28;;;;;;;3.92;1.10;;;;;;;;;;4994127;28;20112;-71
2021/01/30 13:16:54;;;;;;;3.78;2.00;;;;;;;;;;4987016;28;20050;-71
2021/01/30 13:19:20;;;;;;;4.30;1.42;;;;;;;;;;4991536;28;20046;-72
2021/01/30 13:21:48;;;;;;;8.38;1.40;;;;;;;;;;5010377;28;20096;-71
2021/01/30 13:24:14;;;;;;;5.75;1.48;;;;;;;;;;4978470;28;20119;-71
2021/01/30 13:26:40;;;;;;;3.88;1.05;;;;;;;;;;5010662;28;20092;-73
2021/01/30 13:29:08;;;;;;;3.05;1.35;;;;;;;;;;4974866;28;20049;-73
2021/01/30 13:31:45;;;;;;;4.70;1.83;;;;;;;;;;4993860;28;20576;-72
2021/01/30 13:34:11;;;;;;;4.25;1.27;;;;;;;;;;4982422;28;20042;-73
2021/01/30 13:36:38;;;;;;;7.95;1.60;;;;;;;;;;5002851;28;20481;-71
2021/01/30 13:39:04;;;;;;;8.07;1.42;;;;;;;;;;4993932;28;20505;-71
2021/01/30 13:41:31;;;;;;;8.57;1.80;;;;;;;;;;5004839;28;20046;-72
2021/01/30 13:43:58;;;;;;;8.82;2.13;;;;;;;;;;4996660;28;20991;-71
2021/01/30 13:46:24;;;;;;;4.30;1.88;;;;;;;;;;4989678;28;20093;-72
2021/01/30 13:48:51;;;;;;;5.38;1.60;;;;;;;;;;4988604;28;20568;-72
2021/01/30 13:51:17;;;;;;;4.60;1.55;;;;;;;;;;5004627;28;20053;-71
2021/01/30 13:53:43;;;;;;;9.05;1.80;;;;;;;;;;4996354;28;20521;-77
2021/01/30 13:56:09;;;;;;;5.80;2.08;;;;;;;;;;4988040;28;20108;-72
2021/01/30 13:58:35;;;;;;;6.03;1.80;;;;;;;;;;5005766;28;20073;-72
2021/01/30 14:01:01;;;;;;;8.55;2.40;;;;;;;;;;5004844;28;20054;-72
2021/01/30 14:03:27;;;;;;;6.80;1.85;;;;;;;;;;5004089;28;20100;-71
2021/01/30 14:05:54;;;;;;;4.80;1.67;;;;;;;;;;5011413;28;20504;-73
2021/01/30 14:08:20;;;;;;;11.00;2.17;;;;;;;;;;5005129;28;20520;-73
2021/01/30 14:10:46;;;;;;;8.82;2.35;;;;;;;;;;4994441;28;20085;-71
2021/01/30 14:13:12;;;;;;;8.93;1.95;;;;;;;;;;5005898;28;20380;-71
2021/01/30 14:15:39;;;;;;;6.80;1.77;;;;;;;;;;5008449;28;20056;-72
2021/01/30 14:18:05;;;;;;;5.53;2.17;;;;;;;;;;4993093;28;20042;-75
2021/01/30 14:20:31;;;;;;;9.05;2.58;;;;;;;;;;5007778;28;20104;-75
2021/01/30 14:22:58;;;;;;;6.35;2.17;;;;;;;;;;5010237;28;20053;-75
2021/01/30 14:25:24;;;;;;;6.05;2.85;;;;;;;;;;5007988;28;20057;-74
2021/01/30 14:27:51;;;;;;;11.15;2.50;;;;;;;;;;4991894;28;20099;-74
2021/01/30 14:30:18;;;;;;;9.50;3.03;;;;;;;;;;5008642;28;20061;-75
2021/01/30 14:32:44;;;;;;;6.10;3.13;;;;;;;;;;4992660;28;20492;-77
2021/01/30 14:35:13;;;;;;;3.03;1.63;;;;;;;;;;5007964;28;20050;-77
2021/01/30 14:37:39;;;;;;;2.45;1.30;;;;;;;;;;5007733;28;20049;-76
2021/01/30 14:40:07;;;;;;;5.10;1.70;;;;;;;;;;5010724;28;20054;-77
2021/01/30 14:42:33;;;;;;;6.65;2.50;;;;;;;;;;5008397;28;20053;-77
2021/01/30 14:45:01;;;;;;;6.40;2.08;;;;;;;;;;5008557;28;20136;-78
2021/01/30 14:47:28;;;;;;;4.15;1.40;;;;;;;;;;4992481;28;20050;-76
2021/01/30 14:49:55;;;;;;;4.15;1.70;;;;;;;;;;4991912;28;20058;-73
2021/01/30 14:52:21;;;;;;;5.25;2.00;;;;;;;;;;5007944;28;20058;-74
2021/01/30 14:54:47;;;;;;;4.88;1.73;;;;;;;;;;5009253;28;20054;-74
2021/01/30 14:57:13;;;;;;;5.40;1.90;;;;;;;;;;5007585;28;20185;-76
2021/01/30 14:59:39;;;;;;;5.63;2.15;;;;;;;;;;4997635;28;20618;-74
2021/01/30 15:02:05;;;;;;;4.75;2.17;;;;;;;;;;5009299;28;20046;-74
2021/01/30 15:04:32;;;;;;;4.75;2.17;;;;;;;;;;4997207;28;20049;-73
2021/01/30 15:06:58;;;;;;;4.22;1.88;;;;;;;;;;5006537;28;20053;-75
2021/01/30 15:09:25;;;;;;;6.10;1.75;;;;;;;;;;5007736;28;20046;-76
2021/01/30 15:11:51;;;;;;;5.80;2.60;;;;;;;;;;5008865;28;20476;-75